Time;durP1;ratioP1;P1;durP2;ratioP2;P2;SDS_P1;SDS_P2;PMS_P1;PMS_P2;Temp;Humidity;BMP_temperature;BMP_pressure;BME280_temperature;BME280_humidity;BME280_pressure;Samples;Min_cycle;Max_cycle;Signal;HPM_P1;HPM_P2
2023/06/26 00:01:21;;;;;;;13.07;9.27;;;13.50;99.90;;;;;;5031164;28;20080;-80
2023/06/26 00:03:47;;;;;;;13.70;8.45;;;13.50;99.90;;;;;;5031028;28;20450;-80
2023/06/26 00:06:13;;;;;;;12.77;8.38;;;13.40;99.90;;;;;;5030877;28;20030;-80
2023/06/26 00:08:39;;;;;;;10.73;7.93;;;13.40;99.90;;;;;;5029766;28;20029;-80
2023/06/26 00:11:04;;;;;;;10.30;8.15;;;13.30;99.90;;;;;;5031042;28;20390;-80
2023/06/26 00:13:30;;;;;;;12.88;7.80;;;13.30;99.90;;;;;;5029656;28;20135;-80
2023/06/26 00:15:56;;;;;;;11.23;8.18;;;13.30;99.90;;;;;;5029626;28;20059;-81
2023/06/26 00:18:23;;;;;;;12.05;8.10;;;13.30;99.90;;;;;;5029606;28;20069;-80
2023/06/26 00:20:48;;;;;;;11.73;8.18;;;13.20;99.90;;;;;;5029382;28;20029;-80
2023/06/26 00:23:16;;;;;;;10.90;8.23;;;13.20;99.90;;;;;;5029618;28;20033;-81
2023/06/26 00:25:42;;;;;;;12.32;8.30;;;13.10;99.90;;;;;;5030647;28;20017;-80
2023/06/26 00:28:08;;;;;;;15.18;8.98;;;13.10;99.90;;;;;;5030858;28;20022;-81
2023/06/26 00:30:33;;;;;;;12.60;8.30;;;13.10;99.90;;;;;;5030644;28;20029;-80
2023/06/26 00:32:59;;;;;;;14.23;8.02;;;13.00;99.90;;;;;;5030601;28;20027;-80
2023/06/26 00:35:24;;;;;;;11.23;7.90;;;12.90;99.90;;;;;;5030649;28;20027;-80
2023/06/26 00:37:50;;;;;;;15.18;8.65;;;12.90;99.90;;;;;;5037999;28;20028;-80
2023/06/26 00:40:16;;;;;;;11.77;7.18;;;12.90;99.90;;;;;;5048938;28;20037;-80
2023/06/26 00:42:42;;;;;;;9.50;7.03;;;12.80;99.90;;;;;;5049325;28;20478;-80
2023/06/26 00:45:08;;;;;;;12.52;8.00;;;12.80;99.90;;;;;;5050413;28;20053;-81
2023/06/26 00:47:33;;;;;;;15.07;9.25;;;12.80;99.90;;;;;;5051198;28;20074;-81
2023/06/26 00:49:59;;;;;;;13.00;8.07;;;12.80;99.90;;;;;;5053979;28;20363;-80
2023/06/26 00:52:25;;;;;;;12.70;8.57;;;12.70;99.90;;;;;;5039388;28;20032;-81
2023/06/26 00:54:51;;;;;;;13.27;8.07;;;12.70;99.90;;;;;;5032650;28;20026;-81
2023/06/26 00:57:18;;;;;;;11.10;7.68;;;12.70;99.90;;;;;;5032662;28;20367;-81
2023/06/26 00:59:43;;;;;;;11.85;7.72;;;12.60;99.90;;;;;;5033949;28;20025;-80
2023/06/26 01:02:09;;;;;;;9.38;7.07;;;12.60;99.90;;;;;;5033778;28;20033;-81
2023/06/26 01:04:36;;;;;;;12.43;7.30;;;12.50;99.90;;;;;;5033789;28;20044;-80
2023/06/26 01:07:03;;;;;;;12.88;7.63;;;12.40;99.90;;;;;;5032460;28;20117;-80
2023/06/26 01:09:30;;;;;;;8.70;6.90;;;12.40;99.90;;;;;;5032569;28;20026;-80
2023/06/26 01:11:56;;;;;;;7.63;6.32;;;12.40;99.90;;;;;;5033742;28;20040;-81
2023/06/26 01:14:22;;;;;;;7.50;5.40;;;12.30;99.90;;;;;;5032382;28;20026;-80
2023/06/26 01:16:49;;;;;;;8.27;5.70;;;12.30;99.90;;;;;;5033692;28;20018;-81
2023/06/26 01:19:28;;;;;;;10.23;5.75;;;12.30;99.90;;;;;;5033572;28;20435;-80
2023/06/26 01:22:15;;;;;;;8.07;5.28;;;12.20;99.90;;;;;;5033596;28;20371;-81
2023/06/26 01:24:57;;;;;;;9.68;6.88;;;12.20;99.90;;;;;;5033640;28;20022;-81
2023/06/26 01:27:24;;;;;;;11.10;8.30;;;12.10;99.90;;;;;;5033587;28;20436;-81
2023/06/26 01:29:51;;;;;;;11.02;8.38;;;12.10;99.90;;;;;;5033413;28;20033;-80
2023/06/26 01:32:18;;;;;;;13.15;9.02;;;12.10;99.90;;;;;;5032179;28;20035;-80
2023/06/26 01:34:45;;;;;;;8.45;6.53;;;12.10;99.90;;;;;;5032106;28;20060;-80
2023/06/26 01:37:11;;;;;;;8.50;5.93;;;12.00;99.90;;;;;;5032100;28;20026;-81
2023/06/26 01:39:36;;;;;;;12.10;5.65;;;11.90;99.90;;;;;;5033328;28;20032;-80
2023/06/26 01:42:02;;;;;;;8.95;6.13;;;11.90;99.90;;;;;;5032938;28;20053;-81
2023/06/26 01:44:35;;;;;;;4.50;4.07;;;11.90;99.90;;;;;;5031923;28;20033;-81
2023/06/26 01:47:02;;;;;;;4.45;4.05;;;11.80;99.90;;;;;;5031826;28;20057;-80
2023/06/26 01:49:59;;;;;;;3.55;3.25;;;11.80;99.90;;;;;;5031932;28;20521;-80
2023/06/26 01:52:37;;;;;;;4.28;3.90;;;11.70;99.90;;;;;;5026556;28;20486;-81
2023/06/26 01:55:12;;;;;;;4.20;3.90;;;11.70;99.90;;;;;;5031775;28;20018;-80
2023/06/26 01:57:39;;;;;;;7.43;5.85;;;11.60;99.90;;;;;;5033220;28;20375;-80
2023/06/26 02:00:09;;;;;;;4.10;3.72;;;11.60;99.90;;;;;;5031096;28;20117;-80
2023/06/26 02:02:36;;;;;;;4.70;4.22;;;11.60;99.90;;;;;;5033045;28;20037;-81
2023/06/26 02:05:01;;;;;;;11.73;6.80;;;11.50;99.90;;;;;;5032794;28;20034;-80
2023/06/26 02:07:27;;;;;;;14.15;9.07;;;11.50;99.90;;;;;;5036710;28;20028;-80
2023/06/26 02:09:53;;;;;;;17.33;9.63;;;11.50;99.90;;;;;;5051371;28;20027;-80
2023/06/26 02:12:18;;;;;;;11.15;8.25;;;11.50;99.90;;;;;;5046154;28;20022;-81
2023/06/26 02:14:44;;;;;;;13.40;9.25;;;11.50;99.90;;;;;;5031400;28;20032;-80
2023/06/26 02:17:10;;;;;;;13.70;8.70;;;11.50;99.90;;;;;;5032728;28;20045;-81
2023/06/26 02:19:35;;;;;;;12.82;8.35;;;11.40;99.90;;;;;;5031570;28;20025;-80
2023/06/26 02:22:01;;;;;;;10.35;7.07;;;11.40;99.90;;;;;;5032514;28;20034;-80
2023/06/26 02:24:29;;;;;;;7.45;6.10;;;11.40;99.90;;;;;;5031415;28;20026;-80
2023/06/26 02:26:56;;;;;;;7.97;5.25;;;11.30;99.90;;;;;;5032530;28;20130;-81
2023/06/26 02:29:22;;;;;;;5.95;5.38;;;11.30;99.90;;;;;;5032798;28;20101;-80
2023/06/26 02:31:48;;;;;;;9.43;6.20;;;11.30;99.90;;;;;;5032690;28;20072;-80
2023/06/26 02:34:14;;;;;;;6.95;5.97;;;11.20;99.90;;;;;;5032536;28;20470;-80
2023/06/26 02:36:39;;;;;;;9.15;6.30;;;11.20;99.90;;;;;;5031217;28;20079;-81
2023/06/26 02:39:05;;;;;;;7.35;6.55;;;11.20;99.90;;;;;;5031065;28;20022;-80
2023/06/26 02:41:31;;;;;;;8.65;5.95;;;11.20;99.90;;;;;;5030810;28;20060;-80
2023/06/26 02:43:57;;;;;;;10.57;6.43;;;11.20;99.90;;;;;;5032374;28;20021;-80
2023/06/26 02:46:22;;;;;;;9.32;6.25;;;11.10;99.90;;;;;;5032264;28;20022;-80
2023/06/26 02:48:48;;;;;;;8.35;6.18;;;11.20;99.90;;;;;;5032155;28;20416;-80
2023/06/26 02:51:13;;;;;;;6.88;5.47;;;11.10;99.90;;;;;;5030886;28;20026;-80
2023/06/26 02:53:39;;;;;;;10.52;6.28;;;11.10;99.90;;;;;;5032114;28;20393;-80
2023/06/26 02:56:05;;;;;;;7.10;5.80;;;11.10;99.90;;;;;;5030957;28;20025;-80
2023/06/26 02:58:30;;;;;;;10.23;6.47;;;11.20;99.90;;;;;;5030921;28;20034;-80
2023/06/26 03:00:56;;;;;;;13.73;7.82;;;11.20;99.90;;;;;;5031916;28;20038;-80
2023/06/26 03:03:21;;;;;;;15.07;8.35;;;11.20;99.90;;;;;;5030680;28;20024;-80
2023/06/26 03:05:47;;;;;;;10.98;7.05;;;11.20;99.90;;;;;;5030586;28;20029;-80
2023/06/26 03:08:13;;;;;;;12.18;6.78;;;11.20;99.90;;;;;;5032089;28;20013;-80
2023/06/26 03:10:38;;;;;;;8.63;6.50;;;11.20;99.90;;;;;;5029360;28;20018;-80
2023/06/26 03:13:04;;;;;;;7.30;5.18;;;11.20;99.90;;;;;;5031855;28;20063;-81
2023/06/26 03:15:29;;;;;;;7.45;6.63;;;11.20;99.90;;;;;;5030427;28;20030;-81
2023/06/26 03:17:55;;;;;;;6.05;4.57;;;11.20;99.90;;;;;;5031724;28;20066;-81
2023/06/26 03:20:20;;;;;;;4.55;4.18;;;11.30;99.90;;;;;;5030316;28;20051;-81
2023/06/26 03:22:46;;;;;;;3.33;3.05;;;11.30;99.90;;;;;;5030573;28;20029;-80
2023/06/26 03:25:11;;;;;;;2.80;2.63;;;11.30;99.90;;;;;;5031670;28;20386;-81
2023/06/26 03:27:37;;;;;;;6.82;4.53;;;11.40;99.90;;;;;;5030488;28;20026;-81
2023/06/26 03:30:03;;;;;;;9.27;5.28;;;11.50;99.90;;;;;;5031625;28;20025;-81
2023/06/26 03:32:28;;;;;;;4.65;4.10;;;11.70;99.90;;;;;;5031606;28;20025;-81
2023/06/26 03:34:54;;;;;;;6.95;4.63;;;11.80;99.90;;;;;;5030415;28;20527;-81
2023/06/26 03:37:20;;;;;;;8.20;3.78;;;12.10;99.90;;;;;;5030251;28;20462;-81
2023/06/26 03:39:45;;;;;;;3.75;3.45;;;12.20;99.90;;;;;;5029974;28;20021;-81
2023/06/26 03:42:11;;;;;;;5.57;3.60;;;12.40;99.90;;;;;;5030112;28;20033;-81
2023/06/26 03:44:36;;;;;;;4.63;4.10;;;12.60;99.90;;;;;;5031405;28;20457;-81
2023/06/26 03:47:02;;;;;;;6.45;4.78;;;12.80;99.90;;;;;;5031265;28;20428;-81
2023/06/26 03:49:27;;;;;;;7.53;4.40;;;13.00;99.90;;;;;;5030054;28;20390;-81
2023/06/26 03:51:53;;;;;;;5.63;4.15;;;13.20;99.90;;;;;;5029937;28;20025;-82
2023/06/26 03:54:19;;;;;;;5.32;4.07;;;13.50;99.90;;;;;;5030029;28;20108;-82
2023/06/26 03:56:44;;;;;;;6.72;4.28;;;13.60;99.90;;;;;;5029986;28;20025;-82
2023/06/26 03:59:10;;;;;;;8.02;5.40;;;13.90;99.90;;;;;;5029966;28;20018;-81
2023/06/26 04:01:37;;;;;;;7.90;5.80;;;14.10;99.90;;;;;;5029702;28;20045;-82
2023/06/26 04:04:02;;;;;;;6.72;5.10;;;14.30;99.90;;;;;;5029806;28;20029;-81
2023/06/26 04:06:28;;;;;;;5.80;4.70;;;14.50;99.90;;;;;;5029727;28;20543;-81
2023/06/26 04:08:54;;;;;;;6.38;5.18;;;14.70;99.90;;;;;;5029757;28;20021;-82
2023/06/26 04:11:19;;;;;;;5.57;4.82;;;14.80;99.90;;;;;;5029743;28;20026;-82
2023/06/26 04:13:45;;;;;;;7.82;5.45;;;15.00;99.90;;;;;;5030890;28;20029;-81
2023/06/26 04:16:11;;;;;;;6.85;5.55;;;15.10;99.90;;;;;;5030784;28;20029;-81
2023/06/26 04:18:37;;;;;;;8.93;5.40;;;15.20;99.90;;;;;;5030816;28;20035;-81
2023/06/26 04:21:11;;;;;;;8.38;5.68;;;15.40;99.90;;;;;;5029237;28;20033;-81
2023/06/26 04:23:38;;;;;;;8.40;6.45;;;15.50;99.90;;;;;;5030907;28;20097;-82
2023/06/26 04:26:05;;;;;;;16.02;7.53;;;15.60;99.90;;;;;;5029443;28;20374;-82
2023/06/26 04:28:34;;;;;;;11.43;8.18;;;15.70;99.90;;;;;;5029524;28;20022;-82
2023/06/26 04:31:04;;;;;;;15.23;8.85;;;15.90;99.90;;;;;;5029321;28;20018;-82
2023/06/26 04:33:29;;;;;;;12.25;9.40;;;15.90;99.90;;;;;;5029316;28;20117;-81
2023/06/26 04:35:55;;;;;;;15.75;9.75;;;16.10;99.90;;;;;;5029227;28;20434;-82
2023/06/26 04:38:21;;;;;;;14.82;10.32;;;16.20;99.90;;;;;;5029441;28;20021;-82
2023/06/26 04:40:47;;;;;;;15.50;10.63;;;16.30;99.90;;;;;;5029136;28;20098;-82
2023/06/26 04:43:15;;;;;;;17.90;11.73;;;16.40;99.90;;;;;;5030972;28;20057;-82
2023/06/26 04:45:40;;;;;;;16.40;10.48;;;16.40;99.90;;;;;;5029262;28;20109;-82
2023/06/26 04:48:06;;;;;;;19.25;12.27;;;16.40;99.90;;;;;;5029206;28;20045;-82
2023/06/26 04:50:33;;;;;;;17.15;11.15;;;16.50;99.90;;;;;;5029148;28;20031;-82
2023/06/26 04:52:59;;;;;;;18.40;11.68;;;16.60;99.90;;;;;;5029301;28;20029;-82
2023/06/26 04:55:24;;;;;;;20.23;11.32;;;16.60;99.90;;;;;;5029138;28;20021;-82
2023/06/26 04:57:50;;;;;;;17.05;10.80;;;16.60;99.90;;;;;;5029082;28;20025;-81
2023/06/26 05:00:16;;;;;;;24.92;11.65;;;16.60;99.90;;;;;;5028964;28;20070;-81
2023/06/26 05:02:42;;;;;;;18.20;11.07;;;16.80;99.90;;;;;;5029072;28;20477;-82
2023/06/26 05:05:08;;;;;;;18.92;11.20;;;16.80;99.90;;;;;;5030407;28;20018;-81
2023/06/26 05:07:34;;;;;;;22.67;12.07;;;16.90;99.90;;;;;;5029008;28;20033;-82
2023/06/26 05:09:59;;;;;;;14.75;10.10;;;16.90;99.90;;;;;;5034131;28;20025;-82
2023/06/26 05:12:25;;;;;;;15.95;10.63;;;17.00;99.90;;;;;;5048786;28;20022;-82
2023/06/26 05:14:51;;;;;;;15.90;11.10;;;17.10;99.90;;;;;;5048875;28;20117;-82
2023/06/26 05:17:16;;;;;;;18.38;10.40;;;17.20;99.90;;;;;;5033926;28;20086;-82
2023/06/26 05:19:42;;;;;;;15.98;10.15;;;17.30;99.90;;;;;;5030130;28;20025;-81
2023/06/26 05:22:09;;;;;;;14.60;9.05;;;17.40;99.90;;;;;;5030043;28;20547;-82
2023/06/26 05:24:36;;;;;;;15.43;9.77;;;17.50;99.90;;;;;;5028872;28;20018;-82
2023/06/26 05:27:02;;;;;;;14.43;9.73;;;17.60;99.90;;;;;;5028779;28;20026;-82
2023/06/26 05:29:30;;;;;;;12.73;9.05;;;17.70;99.90;;;;;;5028614;28;20394;-81
2023/06/26 05:31:57;;;;;;;13.38;8.90;;;17.80;99.90;;;;;;5028730;28;20407;-82
2023/06/26 05:34:29;;;;;;;13.02;9.07;;;17.80;99.90;;;;;;5031600;28;20542;-81
2023/06/26 05:37:04;;;;;;;13.43;10.52;;;17.90;99.90;;;;;;5033378;28;20025;-82
2023/06/26 05:39:30;;;;;;;11.45;8.80;;;18.10;99.90;;;;;;5032028;28;20032;-82
2023/06/26 05:41:57;;;;;;;12.50;8.65;;;18.20;99.90;;;;;;5031638;28;20128;-82
2023/06/26 05:44:22;;;;;;;14.85;9.00;;;18.30;99.90;;;;;;5033252;28;20404;-82
2023/06/26 05:46:48;;;;;;;16.30;8.90;;;18.50;99.90;;;;;;5031951;28;20020;-82
2023/06/26 05:49:13;;;;;;;14.48;8.75;;;18.60;98.70;;;;;;5033201;28;20029;-81
2023/06/26 05:51:39;;;;;;;11.82;8.90;;;18.70;96.00;;;;;;5033193;28;20022;-82
2023/06/26 05:54:05;;;;;;;13.88;9.57;;;18.80;94.10;;;;;;5032985;28;20026;-82
2023/06/26 05:56:32;;;;;;;14.75;8.32;;;18.90;93.60;;;;;;5031777;28;20206;-81
2023/06/26 05:58:58;;;;;;;13.55;8.93;;;19.10;92.40;;;;;;5032998;28;20512;-82
2023/06/26 06:01:24;;;;;;;10.60;8.48;;;19.20;91.10;;;;;;5032804;28;20038;-81
2023/06/26 06:03:49;;;;;;;11.07;7.55;;;19.30;90.20;;;;;;5033016;28;20078;-82
2023/06/26 06:06:15;;;;;;;13.82;8.93;;;19.50;88.90;;;;;;5031557;28;20094;-82
2023/06/26 06:08:41;;;;;;;12.38;8.48;;;19.60;88.40;;;;;;5031603;28;20078;-82
2023/06/26 06:11:07;;;;;;;8.93;7.60;;;19.80;87.10;;;;;;5031628;28;20021;-81
2023/06/26 06:13:33;;;;;;;12.13;8.73;;;19.90;84.60;;;;;;5032774;28;20438;-81
2023/06/26 06:15:58;;;;;;;12.65;8.95;;;19.90;82.90;;;;;;5032705;28;20033;-81
2023/06/26 06:18:24;;;;;;;13.05;8.20;;;20.10;82.50;;;;;;5032687;28;20025;-81
2023/06/26 06:20:49;;;;;;;10.18;7.80;;;20.30;82.70;;;;;;5032504;28;20030;-82
2023/06/26 06:23:15;;;;;;;8.73;7.05;;;20.40;83.70;;;;;;5032556;28;20025;-82
2023/06/26 06:25:41;;;;;;;12.40;7.15;;;20.60;81.30;;;;;;5031407;28;20379;-81
2023/06/26 06:28:06;;;;;;;9.13;6.65;;;20.80;80.20;;;;;;5032535;28;20024;-81
2023/06/26 06:30:32;;;;;;;8.65;6.20;;;20.90;78.40;;;;;;5031192;28;20021;-81
2023/06/26 06:32:58;;;;;;;8.35;7.18;;;21.10;76.70;;;;;;5032580;28;20026;-82
2023/06/26 06:35:23;;;;;;;11.55;7.47;;;21.30;76.60;;;;;;5031285;28;20570;-82
2023/06/26 06:37:49;;;;;;;10.38;7.18;;;21.50;75.70;;;;;;5031056;28;20037;-82
2023/06/26 06:40:15;;;;;;;7.68;6.82;;;21.60;73.00;;;;;;5030787;28;20064;-81
2023/06/26 06:42:41;;;;;;;8.57;6.88;;;21.70;71.40;;;;;;5031135;28;20498;-82
2023/06/26 06:45:07;;;;;;;8.85;6.50;;;21.90;72.10;;;;;;5032411;28;20070;-82
2023/06/26 06:47:33;;;;;;;9.30;6.60;;;22.00;68.10;;;;;;5031026;28;20428;-81
2023/06/26 06:50:07;;;;;;;9.73;6.10;;;22.10;67.00;;;;;;5032201;28;20074;-82
2023/06/26 06:52:40;;;;;;;8.77;6.93;;;22.30;68.30;;;;;;5032265;28;20017;-82
2023/06/26 06:55:08;;;;;;;7.88;6.10;;;22.50;66.70;;;;;;5043191;28;20107;-82
2023/06/26 06:57:37;;;;;;;10.55;6.43;;;22.60;65.20;;;;;;5051028;28;20040;-82
2023/06/26 07:00:08;;;;;;;7.95;5.90;;;22.80;63.80;;;;;;5052080;28;20021;-82
2023/06/26 07:02:42;;;;;;;8.50;6.85;;;22.80;63.00;;;;;;5050753;28;20065;-82
2023/06/26 07:05:07;;;;;;;9.88;6.28;;;23.00;61.30;;;;;;5050734;28;20496;-81
2023/06/26 07:07:34;;;;;;;9.00;5.70;;;23.20;61.20;;;;;;5051788;28;20029;-81
2023/06/26 07:10:08;;;;;;;8.07;6.03;;;23.20;59.30;;;;;;5051844;28;20025;-81
2023/06/26 07:12:34;;;;;;;6.88;5.10;;;23.20;56.40;;;;;;5050730;28;20477;-81
2023/06/26 07:15:01;;;;;;;7.00;5.15;;;23.30;56.40;;;;;;5050507;28;20021;-82
2023/06/26 07:17:26;;;;;;;7.90;5.70;;;23.50;55.80;;;;;;5051761;28;20021;-82
2023/06/26 07:19:52;;;;;;;7.30;4.75;;;23.60;55.70;;;;;;5050466;28;20119;-82
2023/06/26 07:22:20;;;;;;;6.88;5.13;;;23.50;53.10;;;;;;5049107;28;20029;-82
2023/06/26 07:24:47;;;;;;;6.82;4.43;;;23.60;53.50;;;;;;5030355;28;20040;-82
2023/06/26 07:27:16;;;;;;;6.28;4.78;;;23.70;53.30;;;;;;5031645;28;20032;-82
2023/06/26 07:29:42;;;;;;;5.55;4.72;;;23.80;53.70;;;;;;5030410;28;20386;-81
2023/06/26 07:32:07;;;;;;;8.13;5.10;;;24.00;53.60;;;;;;5030395;28;20022;-81
2023/06/26 07:34:33;;;;;;;8.82;5.38;;;24.10;52.90;;;;;;5031486;28;20475;-82
2023/06/26 07:36:59;;;;;;;7.13;5.05;;;24.00;52.00;;;;;;5030256;28;20082;-82
2023/06/26 07:39:25;;;;;;;7.05;4.88;;;24.10;52.50;;;;;;5030182;28;20416;-83
2023/06/26 07:41:50;;;;;;;5.05;4.53;;;24.00;51.40;;;;;;5031160;28;20050;-83
2023/06/26 07:44:16;;;;;;;6.22;4.57;;;24.00;51.40;;;;;;5031351;28;20100;-82
2023/06/26 07:46:42;;;;;;;5.60;4.97;;;24.20;50.60;;;;;;5031216;28;20034;-82
2023/06/26 07:49:07;;;;;;;10.05;4.97;;;24.30;51.20;;;;;;5031423;28;20036;-82
2023/06/26 07:51:33;;;;;;;8.20;5.03;;;24.50;51.80;;;;;;5029976;28;20077;-82
2023/06/26 07:53:58;;;;;;;5.20;4.63;;;24.50;51.30;;;;;;5030047;28;20021;-83
2023/06/26 07:56:24;;;;;;;7.43;4.70;;;24.40;50.10;;;;;;5030396;28;20030;-82
2023/06/26 07:58:49;;;;;;;7.53;4.70;;;24.40;51.30;;;;;;5029863;28;20069;-82
2023/06/26 08:01:15;;;;;;;4.60;4.00;;;24.60;51.40;;;;;;5030975;28;20037;-83
2023/06/26 08:03:42;;;;;;;6.72;4.95;;;24.90;52.10;;;;;;5029799;28;20052;-82
2023/06/26 08:06:07;;;;;;;6.55;4.53;;;25.10;52.40;;;;;;5031064;28;20028;-82
2023/06/26 08:08:33;;;;;;;7.70;4.30;;;25.20;51.60;;;;;;5029827;28;20014;-82
2023/06/26 08:10:58;;;;;;;8.13;5.57;;;25.30;50.40;;;;;;5030877;28;20037;-82
2023/06/26 08:13:25;;;;;;;8.05;5.40;;;25.20;46.50;;;;;;5029761;28;20482;-82
2023/06/26 08:15:51;;;;;;;9.63;5.47;;;25.10;47.00;;;;;;5030832;28;20382;-82
2023/06/26 08:18:17;;;;;;;9.73;5.30;;;25.10;46.40;;;;;;5029599;28;20028;-82
2023/06/26 08:20:43;;;;;;;9.13;4.50;;;25.20;47.60;;;;;;5029463;28;20017;-82
2023/06/26 08:23:08;;;;;;;6.53;4.70;;;25.00;46.10;;;;;;5029571;28;20041;-82
2023/06/26 08:25:34;;;;;;;7.13;4.32;;;25.30;45.90;;;;;;5030753;28;20028;-82
2023/06/26 08:27:59;;;;;;;8.65;4.45;;;25.60;45.90;;;;;;5030704;28;20360;-82
2023/06/26 08:30:27;;;;;;;6.15;4.85;;;25.60;45.00;;;;;;5030767;28;20109;-82
2023/06/26 08:32:55;;;;;;;6.60;4.75;;;25.60;45.50;;;;;;5029430;28;20018;-82
2023/06/26 08:35:20;;;;;;;11.75;5.32;;;25.30;45.60;;;;;;5030766;28;20022;-82
2023/06/26 08:37:46;;;;;;;8.60;4.97;;;25.20;46.20;;;;;;5029455;28;20126;-82
2023/06/26 08:40:16;;;;;;;7.57;4.20;;;25.50;45.80;;;;;;5030418;28;20387;-82
2023/06/26 08:42:42;;;;;;;8.38;4.82;;;25.70;47.00;;;;;;5030580;28;20115;-82
2023/06/26 08:45:07;;;;;;;4.72;4.22;;;25.70;46.00;;;;;;5030642;28;20025;-82
2023/06/26 08:47:35;;;;;;;4.57;4.18;;;25.60;43.60;;;;;;5029313;28;20021;-82
2023/06/26 08:50:11;;;;;;;7.22;4.50;;;25.70;44.50;;;;;;5029201;28;20022;-82
2023/06/26 08:52:41;;;;;;;8.80;5.22;;;25.80;45.80;;;;;;5029280;28;20483;-82
2023/06/26 08:55:11;;;;;;;7.95;5.50;;;25.80;45.20;;;;;;5029179;28;20030;-82
2023/06/26 08:57:37;;;;;;;5.45;4.80;;;26.10;46.10;;;;;;5029283;28;20036;-82
2023/06/26 09:00:04;;;;;;;6.13;4.50;;;26.30;45.40;;;;;;5029180;28;20490;-83
2023/06/26 09:02:29;;;;;;;6.85;4.53;;;26.40;45.50;;;;;;5028969;28;20064;-82
2023/06/26 09:04:55;;;;;;;7.13;5.22;;;26.10;45.30;;;;;;5030331;28;20471;-82
2023/06/26 09:07:21;;;;;;;7.22;5.10;;;25.70;43.70;;;;;;5030476;28;20086;-82
2023/06/26 09:09:46;;;;;;;8.95;4.65;;;25.90;44.10;;;;;;5032484;28;20025;-82
2023/06/26 09:12:13;;;;;;;5.93;4.40;;;26.10;45.30;;;;;;5032471;28;20061;-82
2023/06/26 09:14:39;;;;;;;5.38;4.88;;;25.90;45.90;;;;;;5032407;28;20021;-82
2023/06/26 09:17:05;;;;;;;5.22;4.70;;;25.90;45.80;;;;;;5033672;28;20070;-81
2023/06/26 09:19:30;;;;;;;7.32;5.05;;;25.70;47.20;;;;;;5033653;28;20530;-82
2023/06/26 09:21:57;;;;;;;6.30;4.32;;;25.40;46.20;;;;;;5033555;28;20158;-82
2023/06/26 09:24:22;;;;;;;5.88;4.65;;;25.00;45.70;;;;;;5032315;28;20147;-82
2023/06/26 09:26:49;;;;;;;5.88;5.10;;;24.60;47.30;;;;;;5033425;28;20051;-81
2023/06/26 09:29:17;;;;;;;5.20;4.70;;;24.60;47.60;;;;;;5033549;28;20025;-81
2023/06/26 09:31:44;;;;;;;6.65;4.95;;;24.50;49.20;;;;;;5033356;28;20032;-81
2023/06/26 09:34:10;;;;;;;5.38;4.47;;;24.50;48.90;;;;;;5033404;28;20030;-81
2023/06/26 09:36:36;;;;;;;5.65;4.35;;;24.50;48.30;;;;;;5033345;28;20471;-81
2023/06/26 09:39:04;;;;;;;4.88;4.15;;;24.80;47.90;;;;;;5033287;28;20116;-81
2023/06/26 09:41:30;;;;;;;5.38;4.50;;;25.30;48.70;;;;;;5031762;28;20498;-81
2023/06/26 09:44:02;;;;;;;9.50;5.07;;;25.60;46.70;;;;;;5033220;28;20022;-81
2023/06/26 09:46:28;;;;;;;6.65;4.75;;;26.00;46.70;;;;;;5031881;28;20055;-82
2023/06/26 09:49:06;;;;;;;5.03;4.38;;;25.90;44.50;;;;;;5032097;28;20067;-82
2023/06/26 09:51:36;;;;;;;6.03;5.32;;;25.90;43.60;;;;;;5031847;28;20025;-82
2023/06/26 09:54:03;;;;;;;6.75;4.88;;;25.80;43.30;;;;;;5033102;28;20033;-82
2023/06/26 09:56:30;;;;;;;7.97;5.10;;;25.70;44.50;;;;;;5031783;28;20535;-82
2023/06/26 09:58:57;;;;;;;6.15;4.43;;;25.50;44.50;;;;;;5031656;28;20022;-81
2023/06/26 10:01:23;;;;;;;6.03;4.60;;;25.50;44.30;;;;;;5032748;28;20037;-81
2023/06/26 10:03:49;;;;;;;4.78;4.28;;;25.60;45.90;;;;;;5032905;28;20025;-81
2023/06/26 10:06:17;;;;;;;4.75;4.05;;;25.20;47.00;;;;;;5032895;28;20051;-81
2023/06/26 10:08:43;;;;;;;5.43;4.57;;;25.00;46.50;;;;;;5031585;28;20025;-81
2023/06/26 10:11:16;;;;;;;8.38;4.85;;;24.90;47.30;;;;;;5031518;28;20101;-82
2023/06/26 10:13:46;;;;;;;6.78;4.22;;;24.70;47.10;;;;;;5032840;28;20037;-81
2023/06/26 10:16:13;;;;;;;5.63;4.97;;;25.00;46.90;;;;;;5031389;28;20422;-81
2023/06/26 10:18:43;;;;;;;7.05;4.53;;;25.40;45.40;;;;;;5032672;28;20029;-81
2023/06/26 10:21:09;;;;;;;5.80;4.28;;;25.80;44.70;;;;;;5030609;28;20045;-81
2023/06/26 10:23:38;;;;;;;5.43;4.53;;;26.00;43.90;;;;;;5032721;28;20097;-82
2023/06/26 10:26:06;;;;;;;4.53;4.13;;;26.20;43.80;;;;;;5032438;28;20026;-82
2023/06/26 10:28:33;;;;;;;5.07;4.55;;;26.30;42.70;;;;;;5031307;28;20055;-82
2023/06/26 10:31:01;;;;;;;6.07;4.43;;;26.50;41.60;;;;;;5032392;28;20391;-82
2023/06/26 10:33:27;;;;;;;4.72;4.13;;;26.80;41.10;;;;;;5032480;28;20022;-83
2023/06/26 10:35:52;;;;;;;5.47;4.50;;;26.60;42.40;;;;;;5031224;28;20024;-83
2023/06/26 10:38:18;;;;;;;7.32;4.43;;;26.70;43.40;;;;;;5031124;28;20026;-83
2023/06/26 10:40:45;;;;;;;5.03;3.78;;;26.80;44.10;;;;;;5032181;28;20088;-82
2023/06/26 10:43:13;;;;;;;4.15;3.85;;;26.80;43.30;;;;;;5031104;28;20129;-82
2023/06/26 10:45:54;;;;;;;4.88;4.38;;;27.10;44.20;;;;;;5031062;28;20022;-82
2023/06/26 10:48:20;;;;;;;5.25;3.55;;;27.30;42.50;;;;;;5031008;28;20024;-83
2023/06/26 10:50:50;;;;;;;4.40;4.00;;;27.30;41.40;;;;;;5032256;28;20063;-83
2023/06/26 10:53:24;;;;;;;4.60;4.10;;;27.50;41.40;;;;;;5030933;28;20360;-83
2023/06/26 10:56:05;;;;;;;5.07;4.03;;;27.50;41.70;;;;;;5030854;28;20025;-82
2023/06/26 10:58:34;;;;;;;5.93;4.80;;;27.60;40.30;;;;;;5030870;28;20030;-83
2023/06/26 11:01:15;;;;;;;5.68;3.97;;;27.80;41.30;;;;;;5030686;28;20029;-82
2023/06/26 11:03:49;;;;;;;5.85;4.20;;;28.00;42.60;;;;;;5032146;28;20478;-83
2023/06/26 11:06:21;;;;;;;4.30;3.72;;;28.20;41.80;;;;;;5030636;28;20024;-83
2023/06/26 11:09:01;;;;;;;;;;;28.10;41.40;;;;;;5032411;28;20494;-83
2023/06/26 11:11:51;;;;;;;4.78;4.28;;;27.70;40.00;;;;;;5030476;28;19905;-82
2023/06/26 11:14:19;;;;;;;4.80;4.30;;;27.40;40.10;;;;;;5030555;28;20048;-82
2023/06/26 11:16:45;;;;;;;5.43;4.55;;;26.90;40.00;;;;;;5031788;28;20455;-82
2023/06/26 11:19:11;;;;;;;4.82;3.90;;;27.20;41.90;;;;;;5030767;28;20022;-82
2023/06/26 11:21:40;;;;;;;5.82;4.90;;;27.30;42.40;;;;;;5031590;28;20497;-82
2023/06/26 11:24:07;;;;;;;4.78;4.20;;;27.20;42.50;;;;;;5030472;28;20025;-83
2023/06/26 11:26:38;;;;;;;5.38;4.18;;;26.80;42.70;;;;;;5031608;28;20026;-82
2023/06/26 11:29:04;;;;;;;5.60;4.15;;;26.70;42.50;;;;;;5031707;28;20386;-82
2023/06/26 11:31:34;;;;;;;4.57;4.10;;;26.80;43.20;;;;;;5030435;28;20025;-82
2023/06/26 11:34:11;;;;;;;4.60;4.20;;;26.60;42.10;;;;;;5030313;28;20017;-82
2023/06/26 11:36:38;;;;;;;4.60;3.95;;;26.70;41.80;;;;;;5030341;28;20025;-83
2023/06/26 11:39:07;;;;;;;5.60;5.03;;;26.60;42.10;;;;;;5031498;28;20025;-82
2023/06/26 11:41:34;;;;;;;5.90;3.97;;;26.30;42.20;;;;;;5031255;28;20056;-81
2023/06/26 11:44:04;;;;;;;5.35;4.75;;;26.20;42.90;;;;;;5031542;28;20032;-82
2023/06/26 11:46:30;;;;;;;5.40;4.00;;;26.10;43.60;;;;;;5031368;28;20026;-82
2023/06/26 11:48:56;;;;;;;5.28;3.97;;;26.00;43.80;;;;;;5031254;28;20025;-82
2023/06/26 11:51:21;;;;;;;6.22;4.78;;;25.90;43.10;;;;;;5031224;28;20033;-82
2023/06/26 11:53:48;;;;;;;9.10;4.50;;;25.80;42.50;;;;;;5030023;28;20494;-82
2023/06/26 11:56:16;;;;;;;5.70;4.32;;;25.60;43.00;;;;;;5029901;28;20017;-81
2023/06/26 11:59:02;;;;;;;3.97;3.60;;;25.60;43.70;;;;;;5031201;28;20025;-81
2023/06/26 12:01:36;;;;;;;4.43;4.03;;;25.40;43.10;;;;;;5031044;28;20040;-81
2023/06/26 12:04:04;;;;;;;6.93;4.10;;;25.70;43.30;;;;;;5031162;28;20029;-82
2023/06/26 12:06:32;;;;;;;4.28;3.88;;;26.20;42.20;;;;;;5031212;28;20021;-82
2023/06/26 12:09:00;;;;;;;6.10;4.15;;;26.50;41.30;;;;;;5031316;28;20378;-81
2023/06/26 12:11:28;;;;;;;4.50;4.10;;;26.80;40.60;;;;;;5030982;28;20064;-82
2023/06/26 12:13:54;;;;;;;4.90;3.70;;;27.00;40.70;;;;;;5030983;28;20026;-82
2023/06/26 12:16:20;;;;;;;4.55;4.15;;;27.00;40.90;;;;;;5030939;28;20075;-82
2023/06/26 12:18:46;;;;;;;5.20;4.28;;;27.00;41.30;;;;;;5029760;28;20022;-82
2023/06/26 12:21:36;;;;;;;6.57;4.72;;;26.70;41.30;;;;;;5030705;28;20498;-82
2023/06/26 12:24:03;;;;;;;5.22;3.83;;;26.70;42.40;;;;;;5029562;28;20524;-82
2023/06/26 12:26:29;;;;;;;5.88;4.25;;;26.90;43.00;;;;;;5029535;28;20030;-82
2023/06/26 12:29:04;;;;;;;8.32;3.88;;;27.00;44.50;;;;;;5029532;28;20025;-82
2023/06/26 12:31:31;;;;;;;6.75;3.95;;;26.80;43.10;;;;;;5030769;28;20082;-82
2023/06/26 12:33:57;;;;;;;4.22;3.65;;;26.90;42.90;;;;;;5029470;28;20116;-81
2023/06/26 12:36:23;;;;;;;4.72;4.32;;;27.00;42.90;;;;;;5029403;28;20098;-82
2023/06/26 12:38:49;;;;;;;4.32;3.60;;;27.30;43.10;;;;;;5030675;28;20048;-82
2023/06/26 12:41:15;;;;;;;4.65;4.25;;;27.30;40.80;;;;;;5030431;28;20049;-82
2023/06/26 12:43:42;;;;;;;6.30;4.18;;;27.20;40.40;;;;;;5029005;28;20036;-82